sensor_id;sensor_type;location;lat;lon;timestamp;P1;P2;P0
70255;PMS5003;57669;52.624;-1.688;2023-02-15T00:01:24;87;81;
70255;PMS5003;57669;52.624;-1.688;2023-02-15T00:03:49;88;83;
70255;PMS5003;57669;52.624;-1.688;2023-02-15T00:06:15;82;80;
70255;PMS5003;57669;52.624;-1.688;2023-02-15T00:08:40;92;89;
70255;PMS5003;57669;52.624;-1.688;2023-02-15T00:11:06;84;80;
70255;PMS5003;57669;52.624;-1.688;2023-02-15T00:13:31;84;80;
70255;PMS5003;57669;52.624;-1.688;2023-02-15T00:15:59;93;85;
70255;PMS5003;57669;52.624;-1.688;2023-02-15T00:18:21;93;89;
70255;PMS5003;57669;52.624;-1.688;2023-02-15T00:20:47;93;86;
70255;PMS5003;57669;52.624;-1.688;2023-02-15T00:23:12;95;86;
70255;PMS5003;57669;52.624;-1.688;2023-02-15T00:25:37;95;86;
70255;PMS5003;57669;52.624;-1.688;2023-02-15T00:28:03;98;89;
70255;PMS5003;57669;52.624;-1.688;2023-02-15T00:30:28;90;86;
70255;PMS5003;57669;52.624;-1.688;2023-02-15T00:32:54;93;90;
70255;PMS5003;57669;52.624;-1.688;2023-02-15T00:35:20;92;88;
70255;PMS5003;57669;52.624;-1.688;2023-02-15T00:37:44;85;79;
70255;PMS5003;57669;52.624;-1.688;2023-02-15T00:40:10;81;77;
70255;PMS5003;57669;52.624;-1.688;2023-02-15T00:42:36;80;78;
70255;PMS5003;57669;52.624;-1.688;2023-02-15T00:45:01;88;86;
70255;PMS5003;57669;52.624;-1.688;2023-02-15T00:47:32;95;89;
70255;PMS5003;57669;52.624;-1.688;2023-02-15T00:49:52;89;85;
70255;PMS5003;57669;52.624;-1.688;2023-02-15T00:52:18;92;85;
70255;PMS5003;57669;52.624;-1.688;2023-02-15T00:54:43;90;84;
70255;PMS5003;57669;52.624;-1.688;2023-02-15T00:57:08;93;84;
70255;PMS5003;57669;52.624;-1.688;2023-02-15T00:59:33;90;83;
70255;PMS5003;57669;52.624;-1.688;2023-02-15T01:01:59;86;77;
70255;PMS5003;57669;52.624;-1.688;2023-02-15T01:04:24;81;79;
70255;PMS5003;57669;52.624;-1.688;2023-02-15T01:06:50;84;77;
70255;PMS5003;57669;52.624;-1.688;2023-02-15T01:09:16;92;86;
70255;PMS5003;57669;52.624;-1.688;2023-02-15T01:11:41;78;75;
70255;PMS5003;57669;52.624;-1.688;2023-02-15T01:14:06;84;79;
70255;PMS5003;57669;52.624;-1.688;2023-02-15T01:16:31;85;80;
70255;PMS5003;57669;52.624;-1.688;2023-02-15T01:18:57;88;87;
70255;PMS5003;57669;52.624;-1.688;2023-02-15T01:21:23;87;84;
70255;PMS5003;57669;52.624;-1.688;2023-02-15T01:23:48;96;90;
70255;PMS5003;57669;52.624;-1.688;2023-02-15T01:28:40;92;84;
70255;PMS5003;57669;52.624;-1.688;2023-02-15T01:31:05;84;78;
70255;PMS5003;57669;52.624;-1.688;2023-02-15T01:33:30;88;83;
70255;PMS5003;57669;52.624;-1.688;2023-02-15T01:35:56;87;82;
70255;PMS5003;57669;52.624;-1.688;2023-02-15T01:38:21;89;81;
70255;PMS5003;57669;52.624;-1.688;2023-02-15T01:40:46;94;89;
70255;PMS5003;57669;52.624;-1.688;2023-02-15T01:43:12;90;88;
70255;PMS5003;57669;52.624;-1.688;2023-02-15T01:45:38;89;86;
70255;PMS5003;57669;52.624;-1.688;2023-02-15T01:48:04;88;80;
70255;PMS5003;57669;52.624;-1.688;2023-02-15T01:50:34;93;82;
70255;PMS5003;57669;52.624;-1.688;2023-02-15T01:52:54;86;81;
70255;PMS5003;57669;52.624;-1.688;2023-02-15T01:55:19;98;95;
70255;PMS5003;57669;52.624;-1.688;2023-02-15T01:57:45;86;83;
70255;PMS5003;57669;52.624;-1.688;2023-02-15T02:00:11;85;83;
70255;PMS5003;57669;52.624;-1.688;2023-02-15T02:02:35;87;83;
70255;PMS5003;57669;52.624;-1.688;2023-02-15T02:05:02;97;88;
70255;PMS5003;57669;52.624;-1.688;2023-02-15T02:07:27;86;82;
70255;PMS5003;57669;52.624;-1.688;2023-02-15T02:09:52;96;90;
70255;PMS5003;57669;52.624;-1.688;2023-02-15T02:12:17;87;79;
70255;PMS5003;57669;52.624;-1.688;2023-02-15T02:14:42;89;87;
70255;PMS5003;57669;52.624;-1.688;2023-02-15T02:17:10;78;76;
70255;PMS5003;57669;52.624;-1.688;2023-02-15T02:19:44;94;85;
70255;PMS5003;57669;52.624;-1.688;2023-02-15T02:27:00;86;82;
70255;PMS5003;57669;52.624;-1.688;2023-02-15T02:29:23;78;74;
70255;PMS5003;57669;52.624;-1.688;2023-02-15T02:31:45;78;76;
70255;PMS5003;57669;52.624;-1.688;2023-02-15T02:34:07;77;74;
70255;PMS5003;57669;52.624;-1.688;2023-02-15T02:36:33;80;78;
70255;PMS5003;57669;52.624;-1.688;2023-02-15T02:39:03;93;85;
70255;PMS5003;57669;52.624;-1.688;2023-02-15T02:41:24;89;86;
70255;PMS5003;57669;52.624;-1.688;2023-02-15T02:43:50;76;75;
70255;PMS5003;57669;52.624;-1.688;2023-02-15T02:46:15;80;76;
70255;PMS5003;57669;52.624;-1.688;2023-02-15T02:48:40;81;74;
70255;PMS5003;57669;52.624;-1.688;2023-02-15T02:51:05;84;80;
70255;PMS5003;57669;52.624;-1.688;2023-02-15T02:53:31;94;87;
70255;PMS5003;57669;52.624;-1.688;2023-02-15T02:55:57;87;81;
70255;PMS5003;57669;52.624;-1.688;2023-02-15T02:58:23;86;83;
70255;PMS5003;57669;52.624;-1.688;2023-02-15T03:00:50;77;74;
70255;PMS5003;57669;52.624;-1.688;2023-02-15T03:03:14;84;81;
70255;PMS5003;57669;52.624;-1.688;2023-02-15T03:05:40;72;72;
70255;PMS5003;57669;52.624;-1.688;2023-02-15T03:08:04;82;78;
70255;PMS5003;57669;52.624;-1.688;2023-02-15T03:10:30;82;76;
70255;PMS5003;57669;52.624;-1.688;2023-02-15T03:12:55;84;80;
70255;PMS5003;57669;52.624;-1.688;2023-02-15T03:15:25;78;71;
70255;PMS5003;57669;52.624;-1.688;2023-02-15T03:17:47;86;83;
70255;PMS5003;57669;52.624;-1.688;2023-02-15T03:20:14;77;75;
70255;PMS5003;57669;52.624;-1.688;2023-02-15T03:22:38;87;85;
70255;PMS5003;57669;52.624;-1.688;2023-02-15T03:25:05;83;78;
70255;PMS5003;57669;52.624;-1.688;2023-02-15T03:27:35;83;80;
70255;PMS5003;57669;52.624;-1.688;2023-02-15T03:29:55;90;79;
70255;PMS5003;57669;52.624;-1.688;2023-02-15T03:32:19;90;82;
70255;PMS5003;57669;52.624;-1.688;2023-02-15T03:34:45;79;78;
70255;PMS5003;57669;52.624;-1.688;2023-02-15T03:37:11;99;92;
70255;PMS5003;57669;52.624;-1.688;2023-02-15T03:39:37;86;79;
70255;PMS5003;57669;52.624;-1.688;2023-02-15T03:42:03;85;80;
70255;PMS5003;57669;52.624;-1.688;2023-02-15T03:44:27;80;77;
70255;PMS5003;57669;52.624;-1.688;2023-02-15T03:46:53;82;76;
70255;PMS5003;57669;52.624;-1.688;2023-02-15T03:49:20;84;80;
70255;PMS5003;57669;52.624;-1.688;2023-02-15T03:51:43;86;81;
70255;PMS5003;57669;52.624;-1.688;2023-02-15T03:54:10;83;81;
70255;PMS5003;57669;52.624;-1.688;2023-02-15T03:56:35;89;83;
70255;PMS5003;57669;52.624;-1.688;2023-02-15T03:59:00;80;76;
70255;PMS5003;57669;52.624;-1.688;2023-02-15T04:01:26;81;79;
70255;PMS5003;57669;52.624;-1.688;2023-02-15T04:03:51;74;73;
70255;PMS5003;57669;52.624;-1.688;2023-02-15T04:06:16;83;82;
70255;PMS5003;57669;52.624;-1.688;2023-02-15T04:08:41;78;75;
70255;PMS5003;57669;52.624;-1.688;2023-02-15T04:11:07;84;78;
70255;PMS5003;57669;52.624;-1.688;2023-02-15T04:13:33;83;78;
70255;PMS5003;57669;52.624;-1.688;2023-02-15T04:15:57;74;73;
70255;PMS5003;57669;52.624;-1.688;2023-02-15T04:18:22;79;74;
70255;PMS5003;57669;52.624;-1.688;2023-02-15T04:20:48;79;76;
70255;PMS5003;57669;52.624;-1.688;2023-02-15T04:23:13;75;75;
70255;PMS5003;57669;52.624;-1.688;2023-02-15T04:25:38;75;72;
70255;PMS5003;57669;52.624;-1.688;2023-02-15T04:28:04;85;80;
70255;PMS5003;57669;52.624;-1.688;2023-02-15T04:30:30;80;77;
70255;PMS5003;57669;52.624;-1.688;2023-02-15T04:32:55;95;89;
70255;PMS5003;57669;52.624;-1.688;2023-02-15T04:35:21;79;77;
70255;PMS5003;57669;52.624;-1.688;2023-02-15T04:37:46;80;78;
70255;PMS5003;57669;52.624;-1.688;2023-02-15T04:40:12;85;77;
70255;PMS5003;57669;52.624;-1.688;2023-02-15T04:42:37;80;74;
70255;PMS5003;57669;52.624;-1.688;2023-02-15T04:45:03;79;75;
70255;PMS5003;57669;52.624;-1.688;2023-02-15T04:47:28;80;75;
70255;PMS5003;57669;52.624;-1.688;2023-02-15T04:49:54;74;72;
70255;PMS5003;57669;52.624;-1.688;2023-02-15T04:52:19;78;77;
70255;PMS5003;57669;52.624;-1.688;2023-02-15T04:54:45;90;84;
70255;PMS5003;57669;52.624;-1.688;2023-02-15T04:57:10;90;86;
70255;PMS5003;57669;52.624;-1.688;2023-02-15T04:59:35;82;80;
70255;PMS5003;57669;52.624;-1.688;2023-02-15T05:02:02;87;82;
70255;PMS5003;57669;52.624;-1.688;2023-02-15T05:04:27;85;80;
70255;PMS5003;57669;52.624;-1.688;2023-02-15T05:06:52;75;74;
70255;PMS5003;57669;52.624;-1.688;2023-02-15T05:09:17;86;82;
70255;PMS5003;57669;52.624;-1.688;2023-02-15T05:11:43;80;76;
70255;PMS5003;57669;52.624;-1.688;2023-02-15T05:14:08;78;77;
70255;PMS5003;57669;52.624;-1.688;2023-02-15T05:16:34;74;73;
70255;PMS5003;57669;52.624;-1.688;2023-02-15T05:18:59;81;79;
70255;PMS5003;57669;52.624;-1.688;2023-02-15T05:21:24;93;88;
70255;PMS5003;57669;52.624;-1.688;2023-02-15T05:23:50;80;77;
70255;PMS5003;57669;52.624;-1.688;2023-02-15T05:26:16;86;80;
70255;PMS5003;57669;52.624;-1.688;2023-02-15T05:28:41;78;77;
70255;PMS5003;57669;52.624;-1.688;2023-02-15T05:31:07;89;84;
70255;PMS5003;57669;52.624;-1.688;2023-02-15T05:33:32;89;82;
70255;PMS5003;57669;52.624;-1.688;2023-02-15T05:38:22;84;80;
70255;PMS5003;57669;52.624;-1.688;2023-02-15T05:40:47;82;74;
70255;PMS5003;57669;52.624;-1.688;2023-02-15T05:43:13;84;84;
70255;PMS5003;57669;52.624;-1.688;2023-02-15T05:45:39;79;75;
70255;PMS5003;57669;52.624;-1.688;2023-02-15T05:48:04;81;76;
70255;PMS5003;57669;52.624;-1.688;2023-02-15T05:50:30;78;73;
70255;PMS5003;57669;52.624;-1.688;2023-02-15T05:52:55;85;81;
70255;PMS5003;57669;52.624;-1.688;2023-02-15T05:55:21;90;83;
70255;PMS5003;57669;52.624;-1.688;2023-02-15T06:00:12;91;81;
70255;PMS5003;57669;52.624;-1.688;2023-02-15T06:02:37;102;95;
70255;PMS5003;57669;52.624;-1.688;2023-02-15T06:05:02;100;97;
70255;PMS5003;57669;52.624;-1.688;2023-02-15T06:07:28;111;102;
70255;PMS5003;57669;52.624;-1.688;2023-02-15T06:09:54;100;95;
70255;PMS5003;57669;52.624;-1.688;2023-02-15T06:12:19;102;98;
70255;PMS5003;57669;52.624;-1.688;2023-02-15T06:14:44;114;108;
70255;PMS5003;57669;52.624;-1.688;2023-02-15T06:17:10;100;93;
70255;PMS5003;57669;52.624;-1.688;2023-02-15T06:19:35;96;93;
70255;PMS5003;57669;52.624;-1.688;2023-02-15T06:22:01;100;96;
70255;PMS5003;57669;52.624;-1.688;2023-02-15T06:24:26;103;95;
70255;PMS5003;57669;52.624;-1.688;2023-02-15T06:26:51;103;100;
70255;PMS5003;57669;52.624;-1.688;2023-02-15T06:29:17;106;95;
70255;PMS5003;57669;52.624;-1.688;2023-02-15T06:31:44;97;92;
70255;PMS5003;57669;52.624;-1.688;2023-02-15T06:34:07;107;101;
70255;PMS5003;57669;52.624;-1.688;2023-02-15T06:36:33;103;93;
70255;PMS5003;57669;52.624;-1.688;2023-02-15T06:38:59;106;99;
70255;PMS5003;57669;52.624;-1.688;2023-02-15T06:41:25;87;86;
70255;PMS5003;57669;52.624;-1.688;2023-02-15T06:43:50;104;93;
70255;PMS5003;57669;52.624;-1.688;2023-02-15T06:46:15;106;98;
70255;PMS5003;57669;52.624;-1.688;2023-02-15T06:48:41;102;95;
70255;PMS5003;57669;52.624;-1.688;2023-02-15T06:51:06;101;93;
70255;PMS5003;57669;52.624;-1.688;2023-02-15T06:53:32;96;89;
70255;PMS5003;57669;52.624;-1.688;2023-02-15T06:56:00;89;86;
70255;PMS5003;57669;52.624;-1.688;2023-02-15T06:58:23;100;94;
70255;PMS5003;57669;52.624;-1.688;2023-02-15T07:00:48;98;95;
70255;PMS5003;57669;52.624;-1.688;2023-02-15T07:03:13;87;83;
70255;PMS5003;57669;52.624;-1.688;2023-02-15T07:05:39;87;85;
70255;PMS5003;57669;52.624;-1.688;2023-02-15T07:08:05;104;95;
70255;PMS5003;57669;52.624;-1.688;2023-02-15T07:10:30;84;80;
70255;PMS5003;57669;52.624;-1.688;2023-02-15T07:12:55;99;87;
70255;PMS5003;57669;52.624;-1.688;2023-02-15T07:15:21;87;83;
70255;PMS5003;57669;52.624;-1.688;2023-02-15T07:17:46;88;85;
70255;PMS5003;57669;52.624;-1.688;2023-02-15T07:20:13;90;80;
70255;PMS5003;57669;52.624;-1.688;2023-02-15T07:22:37;89;83;
70255;PMS5003;57669;52.624;-1.688;2023-02-15T07:25:03;84;81;
70255;PMS5003;57669;52.624;-1.688;2023-02-15T07:27:29;98;93;
70255;PMS5003;57669;52.624;-1.688;2023-02-15T07:29:54;93;91;
70255;PMS5003;57669;52.624;-1.688;2023-02-15T07:32:19;97;94;
70255;PMS5003;57669;52.624;-1.688;2023-02-15T07:34:44;94;90;
70255;PMS5003;57669;52.624;-1.688;2023-02-15T07:37:09;99;94;
70255;PMS5003;57669;52.624;-1.688;2023-02-15T07:39:35;96;93;
70255;PMS5003;57669;52.624;-1.688;2023-02-15T07:42:01;102;97;
70255;PMS5003;57669;52.624;-1.688;2023-02-15T07:44:26;100;93;
70255;PMS5003;57669;52.624;-1.688;2023-02-15T07:46:52;101;96;
70255;PMS5003;57669;52.624;-1.688;2023-02-15T07:51:43;104;96;
70255;PMS5003;57669;52.624;-1.688;2023-02-15T07:54:08;94;91;
70255;PMS5003;57669;52.624;-1.688;2023-02-15T07:56:34;96;90;
70255;PMS5003;57669;52.624;-1.688;2023-02-15T07:58:59;101;98;
70255;PMS5003;57669;52.624;-1.688;2023-02-15T08:01:25;110;102;
70255;PMS5003;57669;52.624;-1.688;2023-02-15T08:03:50;102;93;
70255;PMS5003;57669;52.624;-1.688;2023-02-15T08:06:15;100;96;
70255;PMS5003;57669;52.624;-1.688;2023-02-15T08:08:41;108;100;
70255;PMS5003;57669;52.624;-1.688;2023-02-15T08:11:06;104;96;
70255;PMS5003;57669;52.624;-1.688;2023-02-15T08:15:57;103;95;
70255;PMS5003;57669;52.624;-1.688;2023-02-15T08:18:22;105;98;
70255;PMS5003;57669;52.624;-1.688;2023-02-15T08:20:48;108;98;
70255;PMS5003;57669;52.624;-1.688;2023-02-15T08:23:13;106;97;
70255;PMS5003;57669;52.624;-1.688;2023-02-15T08:25:38;98;88;
70255;PMS5003;57669;52.624;-1.688;2023-02-15T08:28:04;107;105;
70255;PMS5003;57669;52.624;-1.688;2023-02-15T08:30:29;103;97;
70255;PMS5003;57669;52.624;-1.688;2023-02-15T08:32:55;97;90;
70255;PMS5003;57669;52.624;-1.688;2023-02-15T08:35:20;107;102;
70255;PMS5003;57669;52.624;-1.688;2023-02-15T08:37:45;101;96;
70255;PMS5003;57669;52.624;-1.688;2023-02-15T08:40:11;110;100;
70255;PMS5003;57669;52.624;-1.688;2023-02-15T08:42:36;103;98;
70255;PMS5003;57669;52.624;-1.688;2023-02-15T08:45:02;109;97;
70255;PMS5003;57669;52.624;-1.688;2023-02-15T08:47:27;117;108;
70255;PMS5003;57669;52.624;-1.688;2023-02-15T08:49:53;97;94;
70255;PMS5003;57669;52.624;-1.688;2023-02-15T08:52:18;110;100;
70255;PMS5003;57669;52.624;-1.688;2023-02-15T08:54:43;92;85;
70255;PMS5003;57669;52.624;-1.688;2023-02-15T08:57:08;111;108;
70255;PMS5003;57669;52.624;-1.688;2023-02-15T08:59:34;103;94;
70255;PMS5003;57669;52.624;-1.688;2023-02-15T09:01:59;98;95;
70255;PMS5003;57669;52.624;-1.688;2023-02-15T09:04:24;105;97;
70255;PMS5003;57669;52.624;-1.688;2023-02-15T09:06:50;101;92;
70255;PMS5003;57669;52.624;-1.688;2023-02-15T09:09:15;100;100;
70255;PMS5003;57669;52.624;-1.688;2023-02-15T09:11:41;104;94;
70255;PMS5003;57669;52.624;-1.688;2023-02-15T09:14:07;104;98;
70255;PMS5003;57669;52.624;-1.688;2023-02-15T09:16:32;103;98;
70255;PMS5003;57669;52.624;-1.688;2023-02-15T09:18:57;116;99;
70255;PMS5003;57669;52.624;-1.688;2023-02-15T09:21:22;108;104;
70255;PMS5003;57669;52.624;-1.688;2023-02-15T09:23:48;119;103;
70255;PMS5003;57669;52.624;-1.688;2023-02-15T09:26:13;97;93;
70255;PMS5003;57669;52.624;-1.688;2023-02-15T09:28:38;96;95;
70255;PMS5003;57669;52.624;-1.688;2023-02-15T09:31:04;107;100;
70255;PMS5003;57669;52.624;-1.688;2023-02-15T09:33:29;105;98;
70255;PMS5003;57669;52.624;-1.688;2023-02-15T09:35:54;100;91;
70255;PMS5003;57669;52.624;-1.688;2023-02-15T09:38:19;94;89;
70255;PMS5003;57669;52.624;-1.688;2023-02-15T09:43:14;106;101;
70255;PMS5003;57669;52.624;-1.688;2023-02-15T09:45:40;106;98;
70255;PMS5003;57669;52.624;-1.688;2023-02-15T09:48:05;113;105;
70255;PMS5003;57669;52.624;-1.688;2023-02-15T09:50:28;101;99;
70255;PMS5003;57669;52.624;-1.688;2023-02-15T09:52:55;105;101;
70255;PMS5003;57669;52.624;-1.688;2023-02-15T09:55:23;97;94;
70255;PMS5003;57669;52.624;-1.688;2023-02-15T09:57:45;107;100;
70255;PMS5003;57669;52.624;-1.688;2023-02-15T10:00:12;103;98;
70255;PMS5003;57669;52.624;-1.688;2023-02-15T10:02:38;116;113;
70255;PMS5003;57669;52.624;-1.688;2023-02-15T10:05:03;103;97;
70255;PMS5003;57669;52.624;-1.688;2023-02-15T10:07:30;101;98;
70255;PMS5003;57669;52.624;-1.688;2023-02-15T10:09:54;105;98;
70255;PMS5003;57669;52.624;-1.688;2023-02-15T10:12:23;101;93;
70255;PMS5003;57669;52.624;-1.688;2023-02-15T10:14:50;94;90;
70255;PMS5003;57669;52.624;-1.688;2023-02-15T10:17:12;96;93;
70255;PMS5003;57669;52.624;-1.688;2023-02-15T10:19:35;98;91;
70255;PMS5003;57669;52.624;-1.688;2023-02-15T10:22:03;88;85;
70255;PMS5003;57669;52.624;-1.688;2023-02-15T10:26:50;95;88;
70255;PMS5003;57669;52.624;-1.688;2023-02-15T10:29:18;86;83;
70255;PMS5003;57669;52.624;-1.688;2023-02-15T10:31:43;89;86;
70255;PMS5003;57669;52.624;-1.688;2023-02-15T10:34:12;96;93;
70255;PMS5003;57669;52.624;-1.688;2023-02-15T10:36:37;87;84;
70255;PMS5003;57669;52.624;-1.688;2023-02-15T10:38:58;92;90;
70255;PMS5003;57669;52.624;-1.688;2023-02-15T10:41:26;92;81;
70255;PMS5003;57669;52.624;-1.688;2023-02-15T10:43:52;97;90;
70255;PMS5003;57669;52.624;-1.688;2023-02-15T10:46:17;88;84;
70255;PMS5003;57669;52.624;-1.688;2023-02-15T10:48:45;90;85;
70255;PMS5003;57669;52.624;-1.688;2023-02-15T10:51:07;88;86;
70255;PMS5003;57669;52.624;-1.688;2023-02-15T10:55:59;86;83;
70255;PMS5003;57669;52.624;-1.688;2023-02-15T10:58:25;86;84;
70255;PMS5003;57669;52.624;-1.688;2023-02-15T11:00:49;77;75;
70255;PMS5003;57669;52.624;-1.688;2023-02-15T11:03:19;75;72;
70255;PMS5003;57669;52.624;-1.688;2023-02-15T11:05:41;76;74;
70255;PMS5003;57669;52.624;-1.688;2023-02-15T11:08:05;68;65;
70255;PMS5003;57669;52.624;-1.688;2023-02-15T11:10:30;72;71;
70255;PMS5003;57669;52.624;-1.688;2023-02-15T11:12:54;71;70;
70255;PMS5003;57669;52.624;-1.688;2023-02-15T11:15:22;63;60;
70255;PMS5003;57669;52.624;-1.688;2023-02-15T11:17:46;68;65;
70255;PMS5003;57669;52.624;-1.688;2023-02-15T11:20:15;72;71;
70255;PMS5003;57669;52.624;-1.688;2023-02-15T11:22:35;65;63;
70255;PMS5003;57669;52.624;-1.688;2023-02-15T11:25:01;71;67;
70255;PMS5003;57669;52.624;-1.688;2023-02-15T11:27:26;68;67;
70255;PMS5003;57669;52.624;-1.688;2023-02-15T11:29:53;59;57;
70255;PMS5003;57669;52.624;-1.688;2023-02-15T11:32:17;68;63;
70255;PMS5003;57669;52.624;-1.688;2023-02-15T11:34:46;66;65;
70255;PMS5003;57669;52.624;-1.688;2023-02-15T11:37:07;69;66;
70255;PMS5003;57669;52.624;-1.688;2023-02-15T11:39:32;69;64;
70255;PMS5003;57669;52.624;-1.688;2023-02-15T11:41:59;65;64;
70255;PMS5003;57669;52.624;-1.688;2023-02-15T11:44:23;67;62;
70255;PMS5003;57669;52.624;-1.688;2023-02-15T11:46:48;57;56;
70255;PMS5003;57669;52.624;-1.688;2023-02-15T11:51:39;56;56;
70255;PMS5003;57669;52.624;-1.688;2023-02-15T11:54:05;55;53;
70255;PMS5003;57669;52.624;-1.688;2023-02-15T11:56:31;61;58;
70255;PMS5003;57669;52.624;-1.688;2023-02-15T11:58:58;54;51;
70255;PMS5003;57669;52.624;-1.688;2023-02-15T12:01:23;52;51;
70255;PMS5003;57669;52.624;-1.688;2023-02-15T12:03:47;53;50;
70255;PMS5003;57669;52.624;-1.688;2023-02-15T12:06:15;54;53;
70255;PMS5003;57669;52.624;-1.688;2023-02-15T12:08:38;56;51;
70255;PMS5003;57669;52.624;-1.688;2023-02-15T12:11:05;54;52;
70255;PMS5003;57669;52.624;-1.688;2023-02-15T12:13:29;51;51;
70255;PMS5003;57669;52.624;-1.688;2023-02-15T12:15:55;58;55;
70255;PMS5003;57669;52.624;-1.688;2023-02-15T12:18:21;54;53;
70255;PMS5003;57669;52.624;-1.688;2023-02-15T12:20:45;48;46;
70255;PMS5003;57669;52.624;-1.688;2023-02-15T12:23:11;49;47;
70255;PMS5003;57669;52.624;-1.688;2023-02-15T12:25:36;53;50;
70255;PMS5003;57669;52.624;-1.688;2023-02-15T12:28:01;42;42;
70255;PMS5003;57669;52.624;-1.688;2023-02-15T12:30:28;52;49;
70255;PMS5003;57669;52.624;-1.688;2023-02-15T12:32:52;44;43;
70255;PMS5003;57669;52.624;-1.688;2023-02-15T12:35:18;46;43;
70255;PMS5003;57669;52.624;-1.688;2023-02-15T12:44:59;47;46;
70255;PMS5003;57669;52.624;-1.688;2023-02-15T12:47:23;38;37;
70255;PMS5003;57669;52.624;-1.688;2023-02-15T12:54:40;41;41;
70255;PMS5003;57669;52.624;-1.688;2023-02-15T12:59:30;37;36;
70255;PMS5003;57669;52.624;-1.688;2023-02-15T13:01:56;40;39;
70255;PMS5003;57669;52.624;-1.688;2023-02-15T13:04:23;36;35;
70255;PMS5003;57669;52.624;-1.688;2023-02-15T13:06:48;42;40;
70255;PMS5003;57669;52.624;-1.688;2023-02-15T13:09:14;43;43;
70255;PMS5003;57669;52.624;-1.688;2023-02-15T13:11:38;37;37;
70255;PMS5003;57669;52.624;-1.688;2023-02-15T13:14:13;38;37;
70255;PMS5003;57669;52.624;-1.688;2023-02-15T13:16:30;36;36;
70255;PMS5003;57669;52.624;-1.688;2023-02-15T13:18:54;42;41;
70255;PMS5003;57669;52.624;-1.688;2023-02-15T13:21:21;47;45;
70255;PMS5003;57669;52.624;-1.688;2023-02-15T13:23:46;40;39;
70255;PMS5003;57669;52.624;-1.688;2023-02-15T13:26:16;41;40;
70255;PMS5003;57669;52.624;-1.688;2023-02-15T13:28:38;42;41;
70255;PMS5003;57669;52.624;-1.688;2023-02-15T13:31:02;48;47;
70255;PMS5003;57669;52.624;-1.688;2023-02-15T13:33:29;41;40;
70255;PMS5003;57669;52.624;-1.688;2023-02-15T13:35:57;42;41;
70255;PMS5003;57669;52.624;-1.688;2023-02-15T13:38:22;41;39;
70255;PMS5003;57669;52.624;-1.688;2023-02-15T13:40:46;37;36;
70255;PMS5003;57669;52.624;-1.688;2023-02-15T13:43:15;35;34;
70255;PMS5003;57669;52.624;-1.688;2023-02-15T13:45:38;42;39;
70255;PMS5003;57669;52.624;-1.688;2023-02-15T13:48:03;39;37;
70255;PMS5003;57669;52.624;-1.688;2023-02-15T13:50:30;39;36;
70255;PMS5003;57669;52.624;-1.688;2023-02-15T13:52:53;43;41;
70255;PMS5003;57669;52.624;-1.688;2023-02-15T13:55:23;47;42;
70255;PMS5003;57669;52.624;-1.688;2023-02-15T13:57:47;37;34;
70255;PMS5003;57669;52.624;-1.688;2023-02-15T14:00:12;39;33;
70255;PMS5003;57669;52.624;-1.688;2023-02-15T14:02:37;33;33;
70255;PMS5003;57669;52.624;-1.688;2023-02-15T14:07:27;44;36;
70255;PMS5003;57669;52.624;-1.688;2023-02-15T14:09:52;43;42;
70255;PMS5003;57669;52.624;-1.688;2023-02-15T14:12:21;39;37;
70255;PMS5003;57669;52.624;-1.688;2023-02-15T14:14:46;42;41;
70255;PMS5003;57669;52.624;-1.688;2023-02-15T14:17:09;38;34;
70255;PMS5003;57669;52.624;-1.688;2023-02-15T14:19:35;44;41;
70255;PMS5003;57669;52.624;-1.688;2023-02-15T14:21:59;33;33;
70255;PMS5003;57669;52.624;-1.688;2023-02-15T14:24:26;35;35;
70255;PMS5003;57669;52.624;-1.688;2023-02-15T14:26:49;37;35;
70255;PMS5003;57669;52.624;-1.688;2023-02-15T14:29:17;37;36;
70255;PMS5003;57669;52.624;-1.688;2023-02-15T14:31:40;40;38;
70255;PMS5003;57669;52.624;-1.688;2023-02-15T14:34:07;41;40;
70255;PMS5003;57669;52.624;-1.688;2023-02-15T14:36:31;44;43;
70255;PMS5003;57669;52.624;-1.688;2023-02-15T14:38:59;39;38;
70255;PMS5003;57669;52.624;-1.688;2023-02-15T14:41:23;49;42;
70255;PMS5003;57669;52.624;-1.688;2023-02-15T14:43:48;42;41;
70255;PMS5003;57669;52.624;-1.688;2023-02-15T14:46:16;38;35;
70255;PMS5003;57669;52.624;-1.688;2023-02-15T14:48:38;41;40;
70255;PMS5003;57669;52.624;-1.688;2023-02-15T14:51:03;38;35;
70255;PMS5003;57669;52.624;-1.688;2023-02-15T14:53:33;41;37;
70255;PMS5003;57669;52.624;-1.688;2023-02-15T14:58:19;40;39;
70255;PMS5003;57669;52.624;-1.688;2023-02-15T15:00:44;45;41;
70255;PMS5003;57669;52.624;-1.688;2023-02-15T15:03:10;38;37;
70255;PMS5003;57669;52.624;-1.688;2023-02-15T15:05:35;38;37;
70255;PMS5003;57669;52.624;-1.688;2023-02-15T15:08:00;37;35;
70255;PMS5003;57669;52.624;-1.688;2023-02-15T15:12:51;39;38;
70255;PMS5003;57669;52.624;-1.688;2023-02-15T15:20:11;41;39;
70255;PMS5003;57669;52.624;-1.688;2023-02-15T15:22:32;38;36;
70255;PMS5003;57669;52.624;-1.688;2023-02-15T15:24:58;34;32;
70255;PMS5003;57669;52.624;-1.688;2023-02-15T15:29:49;35;32;
70255;PMS5003;57669;52.624;-1.688;2023-02-15T15:32:14;32;31;
70255;PMS5003;57669;52.624;-1.688;2023-02-15T15:34:47;38;35;
70255;PMS5003;57669;52.624;-1.688;2023-02-15T15:37:10;36;31;
70255;PMS5003;57669;52.624;-1.688;2023-02-15T15:41:57;35;33;
70255;PMS5003;57669;52.624;-1.688;2023-02-15T15:49:14;39;37;
70255;PMS5003;57669;52.624;-1.688;2023-02-15T15:51:39;29;28;
70255;PMS5003;57669;52.624;-1.688;2023-02-15T15:54:04;31;30;
70255;PMS5003;57669;52.624;-1.688;2023-02-15T15:56:30;32;32;
70255;PMS5003;57669;52.624;-1.688;2023-02-15T15:58:56;28;26;
70255;PMS5003;57669;52.624;-1.688;2023-02-15T16:01:24;33;30;
70255;PMS5003;57669;52.624;-1.688;2023-02-15T16:03:48;34;32;
70255;PMS5003;57669;52.624;-1.688;2023-02-15T16:06:12;26;26;
70255;PMS5003;57669;52.624;-1.688;2023-02-15T16:08:38;26;26;
70255;PMS5003;57669;52.624;-1.688;2023-02-15T16:11:14;32;30;
70255;PMS5003;57669;52.624;-1.688;2023-02-15T16:13:27;31;30;
70255;PMS5003;57669;52.624;-1.688;2023-02-15T16:15:54;28;28;
70255;PMS5003;57669;52.624;-1.688;2023-02-15T16:18:19;27;25;
70255;PMS5003;57669;52.624;-1.688;2023-02-15T16:20:48;23;22;
70255;PMS5003;57669;52.624;-1.688;2023-02-15T16:23:16;26;25;
70255;PMS5003;57669;52.624;-1.688;2023-02-15T16:25:38;26;25;
70255;PMS5003;57669;52.624;-1.688;2023-02-15T16:28:05;22;20;
70255;PMS5003;57669;52.624;-1.688;2023-02-15T16:30:28;22;21;
70255;PMS5003;57669;52.624;-1.688;2023-02-15T16:32:53;24;23;
70255;PMS5003;57669;52.624;-1.688;2023-02-15T16:35:18;24;24;
70255;PMS5003;57669;52.624;-1.688;2023-02-15T16:37:43;24;24;
70255;PMS5003;57669;52.624;-1.688;2023-02-15T16:40:13;30;28;
70255;PMS5003;57669;52.624;-1.688;2023-02-15T16:42:34;24;24;
70255;PMS5003;57669;52.624;-1.688;2023-02-15T16:45:00;21;21;
70255;PMS5003;57669;52.624;-1.688;2023-02-15T16:47:26;22;22;
70255;PMS5003;57669;52.624;-1.688;2023-02-15T16:49:51;26;25;